sensor_id;sensor_type;location;lat;lon;timestamp;P1;durP1;ratioP1;P2;durP2;ratioP2
23712;SDS011;12035;49.978;8.298;2024-01-16T00:00:11;5.50;;;2.28;;
23712;SDS011;12035;49.978;8.298;2024-01-16T00:05:10;4.32;;;1.98;;
23712;SDS011;12035;49.978;8.298;2024-01-16T00:10:08;8.60;;;2.22;;
23712;SDS011;12035;49.978;8.298;2024-01-16T00:15:06;7.03;;;1.98;;
23712;SDS011;12035;49.978;8.298;2024-01-16T00:20:04;6.65;;;2.08;;
23712;SDS011;12035;49.978;8.298;2024-01-16T00:25:03;6.57;;;2.75;;
23712;SDS011;12035;49.978;8.298;2024-01-16T00:30:03;6.20;;;2.15;;
23712;SDS011;12035;49.978;8.298;2024-01-16T00:35:01;6.03;;;2.75;;
23712;SDS011;12035;49.978;8.298;2024-01-16T00:39:59;4.95;;;2.25;;
23712;SDS011;12035;49.978;8.298;2024-01-16T00:44:56;8.18;;;1.90;;
23712;SDS011;12035;49.978;8.298;2024-01-16T00:49:54;5.43;;;2.10;;
23712;SDS011;12035;49.978;8.298;2024-01-16T00:54:51;10.15;;;2.35;;
23712;SDS011;12035;49.978;8.298;2024-01-16T00:59:48;7.18;;;2.58;;
23712;SDS011;12035;49.978;8.298;2024-01-16T01:04:45;6.22;;;2.38;;
23712;SDS011;12035;49.978;8.298;2024-01-16T01:09:44;7.13;;;2.45;;
23712;SDS011;12035;49.978;8.298;2024-01-16T01:14:41;5.60;;;2.42;;
23712;SDS011;12035;49.978;8.298;2024-01-16T01:19:38;4.68;;;2.83;;
23712;SDS011;12035;49.978;8.298;2024-01-16T01:24:35;7.07;;;2.95;;
23712;SDS011;12035;49.978;8.298;2024-01-16T01:29:33;8.85;;;3.30;;
23712;SDS011;12035;49.978;8.298;2024-01-16T01:34:30;9.15;;;3.28;;
23712;SDS011;12035;49.978;8.298;2024-01-16T01:39:27;9.50;;;3.13;;
23712;SDS011;12035;49.978;8.298;2024-01-16T01:44:25;9.38;;;3.70;;
23712;SDS011;12035;49.978;8.298;2024-01-16T01:49:23;7.15;;;2.70;;
23712;SDS011;12035;49.978;8.298;2024-01-16T01:54:22;8.00;;;3.08;;
23712;SDS011;12035;49.978;8.298;2024-01-16T01:59:20;7.90;;;3.40;;
23712;SDS011;12035;49.978;8.298;2024-01-16T02:04:19;8.45;;;2.65;;
23712;SDS011;12035;49.978;8.298;2024-01-16T02:09:19;5.32;;;2.58;;
23712;SDS011;12035;49.978;8.298;2024-01-16T02:14:16;5.63;;;2.85;;
23712;SDS011;12035;49.978;8.298;2024-01-16T02:19:13;7.70;;;3.78;;
23712;SDS011;12035;49.978;8.298;2024-01-16T02:24:13;7.15;;;3.30;;
23712;SDS011;12035;49.978;8.298;2024-01-16T02:29:11;6.93;;;3.03;;
23712;SDS011;12035;49.978;8.298;2024-01-16T02:34:09;5.60;;;2.80;;
23712;SDS011;12035;49.978;8.298;2024-01-16T02:39:06;6.90;;;3.05;;
23712;SDS011;12035;49.978;8.298;2024-01-16T02:44:04;5.97;;;2.60;;
23712;SDS011;12035;49.978;8.298;2024-01-16T02:49:02;8.48;;;2.88;;
23712;SDS011;12035;49.978;8.298;2024-01-16T02:53:58;6.00;;;2.63;;
23712;SDS011;12035;49.978;8.298;2024-01-16T02:58:55;6.90;;;2.20;;
23712;SDS011;12035;49.978;8.298;2024-01-16T03:03:54;6.63;;;2.53;;
23712;SDS011;12035;49.978;8.298;2024-01-16T03:08:51;9.65;;;2.80;;
23712;SDS011;12035;49.978;8.298;2024-01-16T03:13:48;9.00;;;2.60;;
23712;SDS011;12035;49.978;8.298;2024-01-16T03:18:47;5.75;;;2.53;;
23712;SDS011;12035;49.978;8.298;2024-01-16T03:23:45;3.75;;;2.17;;
23712;SDS011;12035;49.978;8.298;2024-01-16T03:28:42;6.07;;;2.20;;
23712;SDS011;12035;49.978;8.298;2024-01-16T03:33:40;4.63;;;2.33;;
23712;SDS011;12035;49.978;8.298;2024-01-16T03:38:38;7.05;;;2.25;;
23712;SDS011;12035;49.978;8.298;2024-01-16T03:43:36;7.65;;;2.60;;
23712;SDS011;12035;49.978;8.298;2024-01-16T03:48:33;8.30;;;2.78;;
23712;SDS011;12035;49.978;8.298;2024-01-16T03:53:30;10.40;;;3.13;;
23712;SDS011;12035;49.978;8.298;2024-01-16T03:58:27;8.35;;;4.28;;
23712;SDS011;12035;49.978;8.298;2024-01-16T04:03:26;9.43;;;3.83;;
23712;SDS011;12035;49.978;8.298;2024-01-16T04:08:23;11.10;;;3.58;;
23712;SDS011;12035;49.978;8.298;2024-01-16T04:13:19;8.27;;;3.50;;
23712;SDS011;12035;49.978;8.298;2024-01-16T04:18:17;9.10;;;2.90;;
23712;SDS011;12035;49.978;8.298;2024-01-16T04:23:15;6.35;;;2.42;;
23712;SDS011;12035;49.978;8.298;2024-01-16T04:28:13;6.53;;;2.70;;
23712;SDS011;12035;49.978;8.298;2024-01-16T04:33:10;7.55;;;2.63;;
23712;SDS011;12035;49.978;8.298;2024-01-16T04:38:07;5.93;;;2.42;;
23712;SDS011;12035;49.978;8.298;2024-01-16T04:43:06;5.38;;;2.95;;
23712;SDS011;12035;49.978;8.298;2024-01-16T04:48:03;5.70;;;2.42;;
23712;SDS011;12035;49.978;8.298;2024-01-16T04:53:00;5.15;;;2.22;;
23712;SDS011;12035;49.978;8.298;2024-01-16T04:57:58;6.03;;;2.78;;
23712;SDS011;12035;49.978;8.298;2024-01-16T05:02:57;6.25;;;2.33;;
23712;SDS011;12035;49.978;8.298;2024-01-16T05:07:54;5.65;;;2.45;;
23712;SDS011;12035;49.978;8.298;2024-01-16T05:12:51;5.65;;;2.33;;
23712;SDS011;12035;49.978;8.298;2024-01-16T05:17:48;5.63;;;2.00;;
23712;SDS011;12035;49.978;8.298;2024-01-16T05:22:47;4.80;;;2.17;;
23712;SDS011;12035;49.978;8.298;2024-01-16T05:27:44;7.20;;;2.20;;
23712;SDS011;12035;49.978;8.298;2024-01-16T05:32:41;8.05;;;2.63;;
23712;SDS011;12035;49.978;8.298;2024-01-16T05:37:38;6.40;;;2.40;;
23712;SDS011;12035;49.978;8.298;2024-01-16T05:42:37;5.93;;;2.03;;
23712;SDS011;12035;49.978;8.298;2024-01-16T05:47:34;5.60;;;2.50;;
23712;SDS011;12035;49.978;8.298;2024-01-16T05:52:31;5.35;;;2.03;;
23712;SDS011;12035;49.978;8.298;2024-01-16T05:57:28;4.50;;;2.03;;
23712;SDS011;12035;49.978;8.298;2024-01-16T06:02:27;6.40;;;2.15;;
23712;SDS011;12035;49.978;8.298;2024-01-16T06:07:24;5.10;;;2.15;;
23712;SDS011;12035;49.978;8.298;2024-01-16T06:12:22;5.88;;;2.58;;
23712;SDS011;12035;49.978;8.298;2024-01-16T06:17:19;9.85;;;3.10;;
23712;SDS011;12035;49.978;8.298;2024-01-16T06:22:21;7.55;;;2.80;;
23712;SDS011;12035;49.978;8.298;2024-01-16T06:27:18;7.70;;;3.28;;
23712;SDS011;12035;49.978;8.298;2024-01-16T06:32:16;6.82;;;2.92;;
23712;SDS011;12035;49.978;8.298;2024-01-16T06:37:14;7.90;;;2.92;;
23712;SDS011;12035;49.978;8.298;2024-01-16T06:42:12;5.32;;;2.65;;
23712;SDS011;12035;49.978;8.298;2024-01-16T06:47:09;7.43;;;2.90;;
23712;SDS011;12035;49.978;8.298;2024-01-16T06:52:06;10.63;;;2.63;;
23712;SDS011;12035;49.978;8.298;2024-01-16T06:57:04;8.30;;;2.67;;
23712;SDS011;12035;49.978;8.298;2024-01-16T07:02:04;6.53;;;2.90;;
23712;SDS011;12035;49.978;8.298;2024-01-16T07:07:03;3.22;;;1.90;;
23712;SDS011;12035;49.978;8.298;2024-01-16T07:12:01;8.02;;;2.30;;
23712;SDS011;12035;49.978;8.298;2024-01-16T07:16:58;5.90;;;2.78;;
23712;SDS011;12035;49.978;8.298;2024-01-16T07:21:57;7.18;;;2.72;;
23712;SDS011;12035;49.978;8.298;2024-01-16T07:26:54;4.88;;;2.58;;
23712;SDS011;12035;49.978;8.298;2024-01-16T07:31:51;8.77;;;3.17;;
23712;SDS011;12035;49.978;8.298;2024-01-16T07:36:48;9.10;;;2.88;;
23712;SDS011;12035;49.978;8.298;2024-01-16T07:41:46;7.97;;;3.03;;
23712;SDS011;12035;49.978;8.298;2024-01-16T07:46:43;5.88;;;2.97;;
23712;SDS011;12035;49.978;8.298;2024-01-16T07:51:40;8.60;;;3.33;;
23712;SDS011;12035;49.978;8.298;2024-01-16T07:56:37;7.82;;;3.08;;
23712;SDS011;12035;49.978;8.298;2024-01-16T08:01:36;7.65;;;3.00;;
23712;SDS011;12035;49.978;8.298;2024-01-16T08:06:33;8.27;;;3.40;;
23712;SDS011;12035;49.978;8.298;2024-01-16T08:11:30;8.40;;;3.20;;
23712;SDS011;12035;49.978;8.298;2024-01-16T08:16:30;8.85;;;3.30;;
23712;SDS011;12035;49.978;8.298;2024-01-16T08:21:29;9.40;;;3.40;;
23712;SDS011;12035;49.978;8.298;2024-01-16T08:26:26;6.68;;;2.55;;
23712;SDS011;12035;49.978;8.298;2024-01-16T08:31:23;4.75;;;2.78;;
23712;SDS011;12035;49.978;8.298;2024-01-16T08:36:20;6.43;;;3.70;;
23712;SDS011;12035;49.978;8.298;2024-01-16T08:41:19;11.00;;;3.83;;
23712;SDS011;12035;49.978;8.298;2024-01-16T08:46:16;9.60;;;3.00;;
23712;SDS011;12035;49.978;8.298;2024-01-16T08:51:19;7.18;;;3.03;;
23712;SDS011;12035;49.978;8.298;2024-01-16T08:56:19;6.82;;;3.22;;
23712;SDS011;12035;49.978;8.298;2024-01-16T09:01:16;8.98;;;3.05;;
23712;SDS011;12035;49.978;8.298;2024-01-16T09:06:13;9.02;;;2.88;;
23712;SDS011;12035;49.978;8.298;2024-01-16T09:11:10;8.55;;;3.15;;
23712;SDS011;12035;49.978;8.298;2024-01-16T09:16:09;8.60;;;3.22;;
23712;SDS011;12035;49.978;8.298;2024-01-16T09:21:07;8.80;;;3.35;;
23712;SDS011;12035;49.978;8.298;2024-01-16T09:26:04;7.97;;;3.45;;
23712;SDS011;12035;49.978;8.298;2024-01-16T09:31:01;7.75;;;3.33;;
23712;SDS011;12035;49.978;8.298;2024-01-16T09:36:11;6.85;;;3.33;;
23712;SDS011;12035;49.978;8.298;2024-01-16T09:41:10;8.95;;;3.40;;
23712;SDS011;12035;49.978;8.298;2024-01-16T09:46:08;6.65;;;3.13;;
23712;SDS011;12035;49.978;8.298;2024-01-16T09:51:12;9.05;;;3.67;;
23712;SDS011;12035;49.978;8.298;2024-01-16T09:56:12;9.57;;;3.05;;
23712;SDS011;12035;49.978;8.298;2024-01-16T10:01:12;9.40;;;3.78;;
23712;SDS011;12035;49.978;8.298;2024-01-16T10:06:14;10.45;;;3.78;;
23712;SDS011;12035;49.978;8.298;2024-01-16T10:11:15;9.38;;;3.38;;
23712;SDS011;12035;49.978;8.298;2024-01-16T10:16:12;9.80;;;3.60;;
23712;SDS011;12035;49.978;8.298;2024-01-16T10:21:20;9.88;;;4.10;;
23712;SDS011;12035;49.978;8.298;2024-01-16T10:26:18;9.75;;;3.50;;
23712;SDS011;12035;49.978;8.298;2024-01-16T10:31:18;10.02;;;3.53;;
23712;SDS011;12035;49.978;8.298;2024-01-16T10:36:16;5.53;;;2.97;;
23712;SDS011;12035;49.978;8.298;2024-01-16T10:41:16;5.18;;;2.92;;
23712;SDS011;12035;49.978;8.298;2024-01-16T10:46:14;8.07;;;3.05;;
23712;SDS011;12035;49.978;8.298;2024-01-16T10:51:14;8.57;;;2.72;;
23712;SDS011;12035;49.978;8.298;2024-01-16T10:56:12;7.43;;;3.15;;
23712;SDS011;12035;49.978;8.298;2024-01-16T11:01:10;9.60;;;3.83;;
23712;SDS011;12035;49.978;8.298;2024-01-16T11:06:11;6.57;;;3.08;;
23712;SDS011;12035;49.978;8.298;2024-01-16T11:11:12;6.15;;;3.03;;
23712;SDS011;12035;49.978;8.298;2024-01-16T11:16:10;8.10;;;2.88;;
23712;SDS011;12035;49.978;8.298;2024-01-16T11:21:08;5.78;;;3.22;;
23712;SDS011;12035;49.978;8.298;2024-01-16T11:26:28;6.07;;;2.70;;
23712;SDS011;12035;49.978;8.298;2024-01-16T11:31:28;4.85;;;2.30;;
23712;SDS011;12035;49.978;8.298;2024-01-16T11:41:55;5.57;;;2.17;;
23712;SDS011;12035;49.978;8.298;2024-01-16T11:47:01;8.98;;;2.40;;
23712;SDS011;12035;49.978;8.298;2024-01-16T11:51:59;4.00;;;1.92;;
23712;SDS011;12035;49.978;8.298;2024-01-16T12:02:29;5.97;;;1.98;;
23712;SDS011;12035;49.978;8.298;2024-01-16T12:07:45;6.00;;;1.92;;
23712;SDS011;12035;49.978;8.298;2024-01-16T12:12:45;5.60;;;2.00;;
23712;SDS011;12035;49.978;8.298;2024-01-16T12:17:53;5.00;;;2.10;;
23712;SDS011;12035;49.978;8.298;2024-01-16T12:22:52;6.53;;;2.10;;
23712;SDS011;12035;49.978;8.298;2024-01-16T12:27:56;7.15;;;2.13;;
23712;SDS011;12035;49.978;8.298;2024-01-16T12:33:03;5.47;;;1.50;;
23712;SDS011;12035;49.978;8.298;2024-01-16T12:38:02;5.28;;;1.85;;
23712;SDS011;12035;49.978;8.298;2024-01-16T12:43:03;4.63;;;1.88;;
23712;SDS011;12035;49.978;8.298;2024-01-16T12:48:00;6.93;;;1.60;;
23712;SDS011;12035;49.978;8.298;2024-01-16T12:53:02;5.78;;;1.90;;
23712;SDS011;12035;49.978;8.298;2024-01-16T12:58:15;5.47;;;1.52;;
23712;SDS011;12035;49.978;8.298;2024-01-16T13:03:14;5.32;;;1.48;;
23712;SDS011;12035;49.978;8.298;2024-01-16T13:08:19;5.57;;;1.80;;
23712;SDS011;12035;49.978;8.298;2024-01-16T13:13:20;6.40;;;2.00;;
23712;SDS011;12035;49.978;8.298;2024-01-16T13:18:18;4.63;;;1.40;;
23712;SDS011;12035;49.978;8.298;2024-01-16T13:23:16;5.30;;;1.42;;
23712;SDS011;12035;49.978;8.298;2024-01-16T13:28:14;6.82;;;1.67;;
23712;SDS011;12035;49.978;8.298;2024-01-16T13:33:14;4.97;;;1.60;;
23712;SDS011;12035;49.978;8.298;2024-01-16T13:38:12;9.10;;;2.75;;
23712;SDS011;12035;49.978;8.298;2024-01-16T13:43:11;6.40;;;3.28;;
23712;SDS011;12035;49.978;8.298;2024-01-16T13:48:08;10.20;;;3.53;;
23712;SDS011;12035;49.978;8.298;2024-01-16T13:53:07;5.60;;;2.65;;
23712;SDS011;12035;49.978;8.298;2024-01-16T13:58:04;13.93;;;4.05;;
23712;SDS011;12035;49.978;8.298;2024-01-16T14:03:01;7.43;;;3.00;;
23712;SDS011;12035;49.978;8.298;2024-01-16T14:08:00;9.20;;;3.30;;
23712;SDS011;12035;49.978;8.298;2024-01-16T14:12:59;8.30;;;3.05;;
23712;SDS011;12035;49.978;8.298;2024-01-16T14:17:56;8.48;;;3.50;;
23712;SDS011;12035;49.978;8.298;2024-01-16T14:22:54;5.13;;;2.50;;
23712;SDS011;12035;49.978;8.298;2024-01-16T14:27:55;7.57;;;3.03;;
23712;SDS011;12035;49.978;8.298;2024-01-16T14:37:56;8.65;;;2.90;;
23712;SDS011;12035;49.978;8.298;2024-01-16T14:42:53;12.13;;;4.18;;
23712;SDS011;12035;49.978;8.298;2024-01-16T14:47:54;8.43;;;2.88;;
23712;SDS011;12035;49.978;8.298;2024-01-16T14:52:51;9.90;;;3.40;;
23712;SDS011;12035;49.978;8.298;2024-01-16T14:57:48;6.30;;;2.60;;
23712;SDS011;12035;49.978;8.298;2024-01-16T15:02:48;8.40;;;3.10;;
23712;SDS011;12035;49.978;8.298;2024-01-16T15:07:46;8.02;;;2.58;;
23712;SDS011;12035;49.978;8.298;2024-01-16T15:12:47;9.63;;;2.80;;
23712;SDS011;12035;49.978;8.298;2024-01-16T15:17:44;8.07;;;2.45;;
23712;SDS011;12035;49.978;8.298;2024-01-16T15:22:41;6.72;;;3.15;;
23712;SDS011;12035;49.978;8.298;2024-01-16T15:27:41;8.48;;;2.95;;
23712;SDS011;12035;49.978;8.298;2024-01-16T15:32:40;7.82;;;2.92;;
23712;SDS011;12035;49.978;8.298;2024-01-16T15:37:37;6.97;;;2.72;;
23712;SDS011;12035;49.978;8.298;2024-01-16T15:42:34;8.40;;;2.70;;
23712;SDS011;12035;49.978;8.298;2024-01-16T15:47:33;6.85;;;2.70;;
23712;SDS011;12035;49.978;8.298;2024-01-16T15:52:30;6.55;;;2.55;;
23712;SDS011;12035;49.978;8.298;2024-01-16T15:57:27;5.63;;;2.50;;
23712;SDS011;12035;49.978;8.298;2024-01-16T16:02:24;8.20;;;2.55;;
23712;SDS011;12035;49.978;8.298;2024-01-16T16:07:22;6.93;;;3.05;;
23712;SDS011;12035;49.978;8.298;2024-01-16T16:12:19;8.75;;;3.75;;
23712;SDS011;12035;49.978;8.298;2024-01-16T16:17:16;6.95;;;2.78;;
23712;SDS011;12035;49.978;8.298;2024-01-16T16:22:13;6.10;;;2.83;;
23712;SDS011;12035;49.978;8.298;2024-01-16T16:27:20;5.28;;;2.58;;
23712;SDS011;12035;49.978;8.298;2024-01-16T16:32:19;6.65;;;2.45;;
23712;SDS011;12035;49.978;8.298;2024-01-16T16:37:16;5.38;;;2.35;;
23712;SDS011;12035;49.978;8.298;2024-01-16T16:42:14;6.95;;;2.58;;
23712;SDS011;12035;49.978;8.298;2024-01-16T16:47:14;5.03;;;2.25;;
23712;SDS011;12035;49.978;8.298;2024-01-16T16:52:12;4.93;;;2.30;;
23712;SDS011;12035;49.978;8.298;2024-01-16T16:57:09;7.85;;;2.70;;
23712;SDS011;12035;49.978;8.298;2024-01-16T17:02:06;9.30;;;3.00;;
23712;SDS011;12035;49.978;8.298;2024-01-16T17:07:04;10.90;;;4.53;;
23712;SDS011;12035;49.978;8.298;2024-01-16T17:12:05;6.03;;;3.00;;
23712;SDS011;12035;49.978;8.298;2024-01-16T17:17:02;8.60;;;2.75;;
23712;SDS011;12035;49.978;8.298;2024-01-16T17:22:00;6.50;;;2.90;;
23712;SDS011;12035;49.978;8.298;2024-01-16T17:26:59;9.63;;;2.95;;
23712;SDS011;12035;49.978;8.298;2024-01-16T17:31:56;7.78;;;2.95;;
23712;SDS011;12035;49.978;8.298;2024-01-16T17:36:53;7.22;;;3.50;;
23712;SDS011;12035;49.978;8.298;2024-01-16T17:41:50;8.45;;;3.50;;
23712;SDS011;12035;49.978;8.298;2024-01-16T17:46:48;6.80;;;3.28;;
23712;SDS011;12035;49.978;8.298;2024-01-16T17:51:46;10.30;;;3.38;;
23712;SDS011;12035;49.978;8.298;2024-01-16T17:56:43;7.13;;;2.88;;
23712;SDS011;12035;49.978;8.298;2024-01-16T18:01:57;7.32;;;3.00;;
23712;SDS011;12035;49.978;8.298;2024-01-16T18:06:54;7.57;;;3.72;;
23712;SDS011;12035;49.978;8.298;2024-01-16T18:11:51;8.05;;;3.42;;
23712;SDS011;12035;49.978;8.298;2024-01-16T18:16:48;7.55;;;3.75;;
23712;SDS011;12035;49.978;8.298;2024-01-16T18:21:46;7.68;;;3.95;;
23712;SDS011;12035;49.978;8.298;2024-01-16T18:26:45;8.23;;;4.00;;
23712;SDS011;12035;49.978;8.298;2024-01-16T18:31:42;8.45;;;4.45;;
23712;SDS011;12035;49.978;8.298;2024-01-16T18:36:39;8.57;;;4.15;;
23712;SDS011;12035;49.978;8.298;2024-01-16T18:41:44;10.38;;;4.88;;
23712;SDS011;12035;49.978;8.298;2024-01-16T18:46:43;11.90;;;5.10;;
23712;SDS011;12035;49.978;8.298;2024-01-16T18:51:40;12.25;;;4.70;;
23712;SDS011;12035;49.978;8.298;2024-01-16T18:56:38;9.27;;;4.50;;
23712;SDS011;12035;49.978;8.298;2024-01-16T19:01:35;12.35;;;5.10;;
23712;SDS011;12035;49.978;8.298;2024-01-16T19:06:33;9.88;;;4.85;;
23712;SDS011;12035;49.978;8.298;2024-01-16T19:11:29;10.23;;;4.88;;
23712;SDS011;12035;49.978;8.298;2024-01-16T19:16:28;8.52;;;4.43;;
23712;SDS011;12035;49.978;8.298;2024-01-16T19:21:26;11.40;;;4.85;;
23712;SDS011;12035;49.978;8.298;2024-01-16T19:26:22;13.98;;;4.40;;
23712;SDS011;12035;49.978;8.298;2024-01-16T19:31:19;10.90;;;5.25;;
23712;SDS011;12035;49.978;8.298;2024-01-16T19:36:18;8.23;;;4.00;;
23712;SDS011;12035;49.978;8.298;2024-01-16T19:41:15;6.43;;;3.50;;
23712;SDS011;12035;49.978;8.298;2024-01-16T19:46:12;8.38;;;3.53;;
23712;SDS011;12035;49.978;8.298;2024-01-16T19:51:09;10.23;;;4.20;;
23712;SDS011;12035;49.978;8.298;2024-01-16T19:56:07;10.68;;;5.00;;
23712;SDS011;12035;49.978;8.298;2024-01-16T20:01:05;11.02;;;4.80;;
23712;SDS011;12035;49.978;8.298;2024-01-16T20:06:03;11.85;;;5.68;;
23712;SDS011;12035;49.978;8.298;2024-01-16T20:11:00;11.13;;;6.18;;
23712;SDS011;12035;49.978;8.298;2024-01-16T20:16:00;11.48;;;4.97;;
23712;SDS011;12035;49.978;8.298;2024-01-16T20:20:58;13.43;;;5.32;;
23712;SDS011;12035;49.978;8.298;2024-01-16T20:25:55;10.38;;;4.80;;
23712;SDS011;12035;49.978;8.298;2024-01-16T20:30:52;10.35;;;4.97;;
23712;SDS011;12035;49.978;8.298;2024-01-16T20:35:50;12.02;;;5.35;;
23712;SDS011;12035;49.978;8.298;2024-01-16T20:40:48;12.40;;;5.60;;
23712;SDS011;12035;49.978;8.298;2024-01-16T20:45:45;9.45;;;4.72;;
23712;SDS011;12035;49.978;8.298;2024-01-16T20:50:42;11.20;;;5.45;;
23712;SDS011;12035;49.978;8.298;2024-01-16T20:55:40;7.97;;;3.88;;
23712;SDS011;12035;49.978;8.298;2024-01-16T21:00:37;10.95;;;5.85;;
23712;SDS011;12035;49.978;8.298;2024-01-16T21:05:34;11.57;;;5.45;;
23712;SDS011;12035;49.978;8.298;2024-01-16T21:10:32;8.70;;;4.38;;
23712;SDS011;12035;49.978;8.298;2024-01-16T21:15:30;9.45;;;3.92;;
23712;SDS011;12035;49.978;8.298;2024-01-16T21:20:27;15.18;;;6.28;;
23712;SDS011;12035;49.978;8.298;2024-01-16T21:25:24;12.35;;;5.78;;
23712;SDS011;12035;49.978;8.298;2024-01-16T21:30:21;9.23;;;5.10;;
23712;SDS011;12035;49.978;8.298;2024-01-16T21:35:22;11.10;;;5.47;;
23712;SDS011;12035;49.978;8.298;2024-01-16T21:40:19;13.48;;;6.25;;
23712;SDS011;12035;49.978;8.298;2024-01-16T21:45:16;10.43;;;5.28;;
23712;SDS011;12035;49.978;8.298;2024-01-16T21:50:14;13.85;;;6.70;;
23712;SDS011;12035;49.978;8.298;2024-01-16T21:55:13;9.75;;;5.60;;
23712;SDS011;12035;49.978;8.298;2024-01-16T22:00:14;12.48;;;5.82;;
23712;SDS011;12035;49.978;8.298;2024-01-16T22:05:12;20.02;;;7.22;;
23712;SDS011;12035;49.978;8.298;2024-01-16T22:10:10;11.30;;;5.10;;
23712;SDS011;12035;49.978;8.298;2024-01-16T22:15:08;14.45;;;6.15;;
23712;SDS011;12035;49.978;8.298;2024-01-16T22:20:07;15.05;;;6.85;;
23712;SDS011;12035;49.978;8.298;2024-01-16T22:25:05;11.75;;;5.57;;
23712;SDS011;12035;49.978;8.298;2024-01-16T22:30:06;11.00;;;6.25;;
23712;SDS011;12035;49.978;8.298;2024-01-16T22:35:07;10.40;;;5.45;;
23712;SDS011;12035;49.978;8.298;2024-01-16T22:40:05;11.13;;;5.80;;
23712;SDS011;12035;49.978;8.298;2024-01-16T22:45:07;16.92;;;8.15;;
23712;SDS011;12035;49.978;8.298;2024-01-16T22:50:05;12.77;;;7.10;;
23712;SDS011;12035;49.978;8.298;2024-01-16T22:55:03;14.18;;;7.07;;
23712;SDS011;12035;49.978;8.298;2024-01-16T23:00:01;20.95;;;9.70;;
23712;SDS011;12035;49.978;8.298;2024-01-16T23:05:14;14.13;;;7.20;;
23712;SDS011;12035;49.978;8.298;2024-01-16T23:10:13;12.65;;;6.03;;
23712;SDS011;12035;49.978;8.298;2024-01-16T23:15:10;11.98;;;5.82;;
23712;SDS011;12035;49.978;8.298;2024-01-16T23:20:09;11.60;;;5.18;;
23712;SDS011;12035;49.978;8.298;2024-01-16T23:25:10;8.70;;;4.60;;
23712;SDS011;12035;49.978;8.298;2024-01-16T23:30:10;9.25;;;5.43;;
23712;SDS011;12035;49.978;8.298;2024-01-16T23:35:08;13.77;;;5.50;;
23712;SDS011;12035;49.978;8.298;2024-01-16T23:40:05;9.20;;;4.80;;
23712;SDS011;12035;49.978;8.298;2024-01-16T23:45:08;12.55;;;5.63;;
23712;SDS011;12035;49.978;8.298;2024-01-16T23:50:06;13.23;;;5.53;;
23712;SDS011;12035;49.978;8.298;2024-01-16T23:55:03;12.48;;;6.00;;
